Time;durP1;ratioP1;P1;durP2;ratioP2;P2;SDS_P1;SDS_P2;PMS_P1;PMS_P2;Temp;Humidity;BMP_temperature;BMP_pressure;BME280_temperature;BME280_humidity;BME280_pressure;Samples;Min_cycle;Max_cycle;Signal;HPM_P1;HPM_P2
2022/04/25 00:00:42;;;;;;;27.10;15.27;;;;;;;10.96;74.77;99346.56;4715782;30;20505;-79
2022/04/25 00:03:08;;;;;;;26.05;15.32;;;;;;;10.91;74.64;99338.00;4745997;30;20047;-79
2022/04/25 00:05:34;;;;;;;27.40;16.70;;;;;;;11.02;74.85;99356.03;4731340;30;20202;-82
2022/04/25 00:08:00;;;;;;;30.10;16.63;;;;;;;10.90;75.09;99334.53;4748218;30;20594;-81
2022/04/25 00:10:26;;;;;;;29.33;16.65;;;;;;;11.12;75.38;99357.56;4730384;30;20044;-83
2022/04/25 00:12:52;;;;;;;26.65;16.17;;;;;;;10.99;74.72;99333.50;4730876;30;20048;-78
2022/04/25 00:15:18;;;;;;;28.85;16.92;;;;;;;10.98;74.83;99334.38;4746548;30;20044;-80
2022/04/25 00:17:45;;;;;;;27.98;15.57;;;;;;;11.03;74.83;99340.38;4732074;30;20559;-80
2022/04/25 00:20:11;;;;;;;30.30;16.23;;;;;;;11.00;74.81;99335.22;4746431;30;20146;-79
2022/04/25 00:22:37;;;;;;;26.80;14.68;;;;;;;10.98;74.22;99331.78;4745516;30;20152;-81
2022/04/25 00:25:06;;;;;;;28.10;15.90;;;;;;;11.01;75.10;99344.75;4717407;30;20075;-78
2022/04/25 00:27:32;;;;;;;27.85;16.67;;;;;;;11.09;74.92;99350.69;4722781;30;20190;-79
2022/04/25 00:29:59;;;;;;;26.70;15.38;;;;;;;11.12;74.79;99350.63;4731317;30;20055;-79
2022/04/25 00:32:25;;;;;;;26.20;16.05;;;;;;;11.00;75.03;99314.38;4715893;30;20070;-78
2022/04/25 00:34:51;;;;;;;26.08;15.32;;;;;;;11.21;75.05;99349.59;4738025;30;20529;-80
2022/04/25 00:37:17;;;;;;;25.27;15.38;;;;;;;11.07;75.13;99320.34;4731144;30;20048;-78
2022/04/25 00:39:42;;;;;;;22.65;14.82;;;;;;;11.14;74.75;99338.41;4744610;30;20055;-78
2022/04/25 00:42:11;;;;;;;24.45;15.73;;;;;;;11.06;74.83;99329.91;4729891;30;20055;-79
2022/04/25 00:44:38;;;;;;;26.08;14.98;;;;;;;11.05;74.72;99322.97;4716874;30;20483;-78
2022/04/25 00:47:06;;;;;;;26.25;15.75;;;;;;;10.58;74.55;99260.50;4731746;30;20562;-78
2022/04/25 00:49:32;;;;;;;24.52;14.68;;;;;;;10.55;74.86;99258.78;4717726;30;20484;-79
2022/04/25 00:51:58;;;;;;;26.05;14.93;;;;;;;11.10;74.91;99325.50;4730761;30;20093;-77
2022/04/25 00:54:25;;;;;;;26.45;15.23;;;;;;;11.11;74.94;99319.41;4736405;30;20048;-80
2022/04/25 00:56:51;;;;;;;24.40;15.55;;;;;;;11.21;74.50;99323.56;4755040;30;20064;-80
2022/04/25 00:59:18;;;;;;;28.52;15.98;;;;;;;11.28;74.16;99332.09;4744386;30;20052;-76
2022/04/25 01:01:45;;;;;;;24.77;15.45;;;;;;;11.24;74.72;99340.88;4739790;30;20040;-80
2022/04/25 01:04:11;;;;;;;22.65;14.27;;;;;;;11.22;74.93;99338.31;4746673;30;20551;-80
2022/04/25 01:06:38;;;;;;;24.13;14.85;;;;;;;11.07;74.54;99300.38;4747595;30;20060;-79
2022/04/25 01:09:05;;;;;;;26.67;14.93;;;;;;;11.27;74.83;99333.84;4750976;30;20086;-80
2022/04/25 01:11:31;;;;;;;23.65;14.48;;;;;;;11.29;74.37;99331.22;4740915;30;20109;-82
2022/04/25 01:13:58;;;;;;;22.23;14.27;;;;;;;11.41;74.68;99348.38;4731075;30;20532;-79
2022/04/25 01:16:23;;;;;;;22.70;14.15;;;;;;;11.38;74.88;99346.66;4732601;30;20058;-75
2022/04/25 01:18:49;;;;;;;22.45;13.77;;;;;;;11.43;74.33;99354.41;4744876;30;20986;-80
2022/04/25 01:21:20;;;;;;;22.48;13.77;;;;;;;11.34;74.05;99347.63;4715097;30;20600;-77
2022/04/25 01:29:16;;;;;;;22.55;14.35;;;;;;;11.29;74.38;99334.66;4730119;30;20502;-79
2022/04/25 01:31:42;;;;;;;24.10;13.45;;;;;;;11.52;74.50;99355.97;4729455;30;20066;-78
2022/04/25 01:34:08;;;;;;;21.00;13.23;;;;;;;11.44;74.00;99338.72;4715175;30;20047;-78
2022/04/25 01:36:34;;;;;;;20.08;12.93;;;;;;;11.50;74.22;99350.78;4729021;30;20052;-78
2022/04/25 01:39:01;;;;;;;18.55;11.93;;;;;;;11.57;73.83;99357.59;4730288;30;20060;-80
2022/04/25 01:41:27;;;;;;;19.25;12.25;;;;;;;11.56;73.84;99349.81;4745200;30;20068;-79
2022/04/25 01:43:53;;;;;;;18.02;11.63;;;;;;;11.45;73.81;99330.03;4700868;30;20056;-79
2022/04/25 01:46:19;;;;;;;17.70;10.90;;;;;;;11.47;73.83;99339.56;4743393;30;20054;-83
2022/04/25 01:48:45;;;;;;;19.35;11.43;;;;;;;11.51;74.04;99356.84;4715008;30;20417;-80
2022/04/25 01:51:11;;;;;;;16.23;10.27;;;;;;;11.36;73.78;99332.84;4743104;30;20959;-77
2022/04/25 01:53:38;;;;;;;15.23;10.52;;;;;;;11.47;73.52;99347.38;4745357;30;20123;-79
2022/04/25 01:56:04;;;;;;;15.90;10.52;;;;;;;11.44;73.76;99356.13;4746969;30;20056;-81
2022/04/25 01:58:30;;;;;;;17.83;10.80;;;;;;;11.35;73.56;99351.06;4745607;30;20052;-81
2022/04/25 02:00:56;;;;;;;16.83;10.18;;;;;;;11.29;73.96;99352.91;4730212;30;20446;-81
2022/04/25 02:03:22;;;;;;;16.02;10.40;;;;;;;11.18;73.57;99341.84;4718325;30;20048;-78
2022/04/25 02:05:48;;;;;;;16.90;10.90;;;;;;;11.23;73.51;99357.38;4749416;30;20481;-81
2022/04/25 02:08:14;;;;;;;17.98;10.38;;;;;;;11.08;73.75;99328.13;4733805;30;20055;-79
2022/04/25 02:10:40;;;;;;;16.08;10.40;;;;;;;11.07;73.97;99336.84;4749626;30;20059;-79
2022/04/25 02:13:06;;;;;;;17.10;10.77;;;;;;;11.24;73.87;99369.50;4733480;30;20054;-81
2022/04/25 02:15:32;;;;;;;16.58;10.75;;;;;;;11.26;73.64;99360.78;4747979;30;20059;-80
2022/04/25 02:17:58;;;;;;;15.07;10.68;;;;;;;11.18;73.43;99340.97;4748210;30;20088;-79
2022/04/25 02:20:24;;;;;;;17.45;10.52;;;;;;;11.32;74.17;99357.22;4732841;30;20118;-77
2022/04/25 02:22:50;;;;;;;16.98;10.38;;;;;;;11.28;73.34;99350.34;4747293;30;20141;-81
2022/04/25 02:25:15;;;;;;;16.42;10.18;;;;;;;11.30;73.68;99349.41;4734990;30;20059;-79
2022/04/25 02:27:42;;;;;;;17.45;10.30;;;;;;;11.37;73.62;99360.56;4718122;30;20051;-81
2022/04/25 02:30:08;;;;;;;15.35;9.57;;;;;;;11.41;73.37;99367.44;4749253;30;20052;-80
2022/04/25 02:32:35;;;;;;;16.65;10.25;;;;;;;11.47;73.77;99365.63;4764719;29;20060;-79
2022/04/25 02:35:01;;;;;;;16.10;10.02;;;;;;;11.49;73.56;99367.28;4753510;30;20115;-80
2022/04/25 02:37:28;;;;;;;14.80;9.85;;;;;;;11.47;73.26;99357.78;4745927;30;20044;-78
2022/04/25 02:39:55;;;;;;;15.63;9.93;;;;;;;11.36;73.54;99343.25;4750623;30;20066;-79
2022/04/25 02:42:21;;;;;;;17.50;10.18;;;;;;;11.43;73.65;99360.47;4749653;30;20040;-77
2022/04/25 02:44:48;;;;;;;14.70;9.95;;;;;;;11.44;73.29;99372.59;4749212;30;20047;-78
2022/04/25 02:47:14;;;;;;;15.30;10.00;;;;;;;11.21;73.05;99333.97;4718108;30;20051;-80
2022/04/25 02:49:40;;;;;;;14.80;9.65;;;;;;;11.38;73.23;99359.69;4718085;30;20316;-78
2022/04/25 02:52:06;;;;;;;16.60;9.77;;;;;;;11.49;73.20;99369.06;4733027;30;20067;-81
2022/04/25 02:54:32;;;;;;;15.45;10.07;;;;;;;11.56;73.29;99373.25;4746208;30;20056;-81
2022/04/25 02:56:58;;;;;;;16.10;10.77;;;;;;;11.36;73.37;99332.84;4734316;30;20041;-81
2022/04/25 02:59:24;;;;;;;16.27;10.15;;;;;;;11.51;73.09;99365.50;4726429;30;20105;-82
2022/04/25 03:01:50;;;;;;;15.70;10.30;;;;;;;11.45;72.98;99358.69;4755121;30;20146;-80
2022/04/25 03:04:16;;;;;;;15.90;9.55;;;;;;;11.53;73.10;99365.50;4756058;30;20056;-78
2022/04/25 03:06:42;;;;;;;14.43;10.20;;;;;;;11.58;72.83;99379.31;4759352;30;20052;-79
2022/04/25 03:09:08;;;;;;;17.17;10.77;;;;;;;11.58;73.03;99374.09;4719570;30;20054;-78
2022/04/25 03:11:35;;;;;;;17.92;10.48;;;;;;;11.53;73.20;99365.50;4724299;30;20480;-78
2022/04/25 03:14:04;;;;;;;14.98;9.73;;;;;;;11.08;73.07;99285.59;4727179;30;20044;-77
2022/04/25 03:16:30;;;;;;;13.88;9.70;;;;;;;11.53;72.64;99347.25;4741134;30;21464;-79
2022/04/25 03:18:58;;;;;;;15.05;9.63;;;;;;;11.66;73.13;99369.56;4745138;30;20048;-75
2022/04/25 03:21:25;;;;;;;20.13;12.35;;;;;;;11.70;72.45;99376.44;4749604;30;20040;-76
2022/04/25 03:23:51;;;;;;;15.90;9.43;;;;;;;11.75;72.54;99372.00;4751611;30;20179;-79
2022/04/25 03:26:17;;;;;;;12.52;8.48;;;;;;;11.72;72.82;99359.03;4747861;30;20485;-78
2022/04/25 03:28:43;;;;;;;13.93;8.90;;;;;;;11.79;72.56;99348.47;4719013;30;20139;-79
2022/04/25 03:31:09;;;;;;;12.60;8.75;;;;;;;11.88;72.41;99341.31;4751189;30;20147;-77
2022/04/25 03:33:36;;;;;;;12.65;8.60;;;;;;;12.30;72.80;99379.53;4743123;30;20048;-79
2022/04/25 03:36:03;;;;;;;13.02;7.75;;;;;;;12.32;71.98;99349.06;4736973;30;20044;-78
2022/04/25 03:38:29;;;;;;;11.93;8.35;;;;;;;12.37;71.82;99327.22;4752498;30;20107;-78
2022/04/25 03:40:55;;;;;;;11.45;7.63;;;;;;;12.75;72.08;99359.34;4721517;30;20048;-77
2022/04/25 03:43:23;;;;;;;12.13;7.88;;;;;;;12.87;70.97;99382.56;4722754;30;20075;-78
2022/04/25 03:45:49;;;;;;;10.70;7.55;;;;;;;12.69;70.50;99362.97;4740331;30;20060;-76
2022/04/25 03:48:15;;;;;;;13.05;7.78;;;;;;;12.69;70.60;99373.41;4723505;30;20044;-79
2022/04/25 03:50:41;;;;;;;11.23;7.97;;;;;;;12.59;70.42;99369.31;4753190;30;20067;-79
2022/04/25 03:53:11;;;;;;;11.85;8.20;;;;;;;12.53;70.16;99377.31;4731873;30;20048;-77
2022/04/25 03:58:22;;;;;;;12.27;7.70;;;;;;;12.45;70.35;99382.72;4749797;30;20063;-78
2022/04/25 04:00:50;;;;;;;10.25;7.75;;;;;;;12.29;70.40;99349.13;4751414;30;20059;-78
2022/04/25 04:03:18;;;;;;;9.63;7.25;;;;;;;12.34;70.05;99342.06;4734771;30;20628;-76
2022/04/25 04:05:46;;;;;;;13.65;7.22;;;;;;;12.46;70.01;99353.09;4751665;30;20052;-77
2022/04/25 04:08:12;;;;;;;9.55;6.88;;;;;;;12.81;70.14;99386.16;4751610;30;20545;-80
2022/04/25 04:10:39;;;;;;;9.60;7.15;;;;;;;13.08;69.67;99380.31;4761664;30;20548;-79
2022/04/25 04:13:05;;;;;;;17.00;7.32;;;;;;;13.36;69.39;99385.66;4761599;30;20044;-77
2022/04/25 04:15:31;;;;;;;11.18;7.05;;;;;;;13.34;68.40;99347.41;4749697;30;20052;-80
2022/04/25 04:17:58;;;;;;;10.50;6.65;;;;;;;13.78;68.98;99365.38;4745581;30;20047;-77
2022/04/25 04:20:24;;;;;;;10.10;6.70;;;;;;;13.94;67.46;99345.69;4746948;30;20151;-81
2022/04/25 04:22:50;;;;;;;8.70;6.18;;;;;;;14.01;67.07;99336.78;4746115;30;20117;-81
2022/04/25 04:25:16;;;;;;;8.10;6.10;;;;;;;14.15;66.65;99338.97;4747266;30;20055;-80
2022/04/25 04:27:43;;;;;;;8.02;5.57;;;;;;;14.34;66.28;99350.63;4731401;30;20048;-81
2022/04/25 04:30:13;;;;;;;8.60;6.03;;;;;;;14.13;65.48;99343.38;4746664;30;20059;-78
2022/04/25 04:32:41;;;;;;;11.65;6.53;;;;;;;13.88;65.02;99327.59;4746353;30;20056;-78
2022/04/25 04:35:16;;;;;;;10.15;6.55;;;;;;;13.72;64.69;99348.09;4717230;30;20044;-78
2022/04/25 04:37:42;;;;;;;9.13;5.88;;;;;;;13.63;64.78;99349.22;4730643;30;20058;-80
2022/04/25 04:42:55;;;;;;;7.72;5.03;;;;;;;13.54;64.42;99339.91;4731086;30;20592;-80
2022/04/25 04:45:21;;;;;;;7.35;5.20;;;;;;;13.59;64.70;99320.59;4732415;30;20076;-77
2022/04/25 04:47:47;;;;;;;6.88;5.57;;;;;;;13.77;64.14;99320.06;4753588;30;20592;-81
2022/04/25 04:50:14;;;;;;;8.38;5.70;;;;;;;14.11;64.04;99333.88;4732212;30;20048;-76
2022/04/25 04:52:45;;;;;;;7.50;5.15;;;;;;;14.22;63.67;99305.59;4746756;30;20048;-79
2022/04/25 04:55:12;;;;;;;7.53;5.72;;;;;;;14.48;62.92;99297.81;4731654;30;20115;-80
2022/04/25 04:57:39;;;;;;;8.43;5.38;;;;;;;14.72;62.75;99298.81;4748654;30;20056;-78
2022/04/25 05:00:07;;;;;;;7.55;5.18;;;;;;;15.08;62.69;99336.88;4744953;30;20051;-80
2022/04/25 05:02:33;;;;;;;8.35;5.13;;;;;;;15.13;61.88;99299.13;4721231;30;20148;-81
2022/04/25 05:05:00;;;;;;;8.80;4.60;;;;;;;15.44;60.79;99328.59;4715174;30;20047;-80
2022/04/25 05:07:26;;;;;;;8.35;5.20;;;;;;;15.62;61.46;99332.34;4716691;30;20051;-78
2022/04/25 05:09:52;;;;;;;6.47;4.28;;;;;;;15.87;60.58;99316.53;4743440;30;20055;-77
2022/04/25 05:12:20;;;;;;;6.68;4.88;;;;;;;16.08;58.95;99337.63;4730607;30;20730;-80
2022/04/25 05:14:47;;;;;;;7.47;4.22;;;;;;;16.15;59.53;99331.22;4730986;30;20144;-83
2022/04/25 05:17:13;;;;;;;7.30;4.53;;;;;;;16.34;58.92;99339.19;4744870;30;20099;-77
2022/04/25 05:19:39;;;;;;;8.07;4.63;;;;;;;16.69;58.63;99330.81;4745065;30;20085;-80
2022/04/25 05:22:05;;;;;;;5.13;4.00;;;;;;;17.29;57.80;99330.91;4730788;30;20048;-81
2022/04/25 05:24:31;;;;;;;6.03;4.35;;;;;;;18.32;56.46;99332.38;4736481;30;21539;-80
2022/04/25 05:26:57;;;;;;;5.50;4.40;;;;;;;19.13;55.49;99336.31;4715058;30;20048;-83
2022/04/25 05:29:22;;;;;;;6.55;4.18;;;;;;;19.79;52.49;99344.31;4729592;30;20490;-81
2022/04/25 05:31:49;;;;;;;7.05;4.07;;;;;;;19.88;52.35;99329.78;4729281;30;20059;-79
2022/04/25 05:34:15;;;;;;;4.53;4.00;;;;;;;20.03;49.70;99323.63;4718181;30;20245;-81
2022/04/25 05:36:42;;;;;;;7.32;4.20;;;;;;;20.71;49.54;99350.66;4739567;30;20542;-82
2022/04/25 05:39:09;;;;;;;5.38;4.22;;;;;;;21.54;47.66;99344.84;4718886;30;20142;-78
2022/04/25 05:41:36;;;;;;;6.40;4.03;;;;;;;21.30;46.81;99323.41;4731586;30;20052;-81
2022/04/25 05:44:03;;;;;;;4.72;3.85;;;;;;;20.99;46.26;99349.06;4748309;30;20048;-81
2022/04/25 05:46:30;;;;;;;5.15;4.10;;;;;;;21.34;46.39;99348.75;4721550;30;20044;-82
2022/04/25 05:51:59;;;;;;;6.03;3.90;;;;;;;21.64;44.35;99366.34;4758587;30;20052;-81
2022/04/25 05:54:30;;;;;;;4.90;3.60;;;;;;;21.04;44.50;99373.44;4738578;30;20047;-78
2022/04/25 05:56:56;;;;;;;5.95;3.65;;;;;;;20.54;44.27;99370.13;4734119;30;20052;-82
2022/04/25 05:59:22;;;;;;;7.05;3.78;;;;;;;21.47;44.16;99380.59;4719773;30;20044;-80
2022/04/25 06:01:48;;;;;;;10.02;4.40;;;;;;;21.07;43.50;99383.84;4732241;30;20051;-81
2022/04/25 06:04:14;;;;;;;6.65;4.13;;;;;;;20.12;43.54;99362.75;4748147;30;20063;-77
2022/04/25 06:06:40;;;;;;;6.28;4.20;;;;;;;19.57;44.54;99395.59;4733477;30;20051;-79
2022/04/25 06:09:09;;;;;;;5.03;4.50;;;;;;;19.14;44.34;99388.09;4751407;30;20743;-80
2022/04/25 06:11:39;;;;;;;8.18;4.97;;;;;;;18.49;45.31;99392.16;4748644;30;20056;-78
2022/04/25 06:14:05;;;;;;;8.15;5.18;;;;;;;18.18;45.67;99374.31;4731158;30;20461;-82
2022/04/25 06:16:31;;;;;;;16.73;5.90;;;;;;;17.92;46.09;99389.50;4746691;30;20067;-82
2022/04/25 06:18:59;;;;;;;13.30;4.97;;;;;;;17.95;46.78;99394.63;4733774;30;20533;-78
2022/04/25 06:21:41;;;;;;;12.15;5.38;;;;;;;17.96;47.27;99396.34;4749567;30;20043;-82
2022/04/25 06:24:07;;;;;;;7.03;5.28;;;;;;;17.76;46.82;99381.44;4732192;30;20044;-81
2022/04/25 06:26:34;;;;;;;14.27;5.32;;;;;;;17.72;47.20;99393.91;4735605;30;20062;-83
2022/04/25 06:29:01;;;;;;;8.07;5.30;;;;;;;17.33;47.33;99383.34;4740384;30;20078;-82
2022/04/25 06:31:31;;;;;;;11.45;5.15;;;;;;;17.23;47.54;99386.38;4741642;30;20059;-79
2022/04/25 06:34:01;;;;;;;7.00;5.00;;;;;;;17.21;48.02;99390.00;4755549;30;20595;-79
2022/04/25 06:36:27;;;;;;;8.25;4.82;;;;;;;17.25;48.84;99378.44;4747499;30;20049;-77
2022/04/25 06:38:53;;;;;;;9.00;4.60;;;;;;;17.70;48.11;99365.94;4753203;30;20070;-78
2022/04/25 06:41:21;;;;;;;6.60;4.63;;;;;;;18.80;47.30;99379.25;4767003;30;20043;-81
2022/04/25 06:43:49;;;;;;;5.47;4.20;;;;;;;20.07;46.72;99356.88;4756427;30;20142;-81
2022/04/25 06:46:15;;;;;;;7.60;4.13;;;;;;;22.16;45.54;99340.16;4740685;30;20406;-80
2022/04/25 06:49:19;;;;;;;6.88;4.05;;;;;;;23.98;42.84;99348.28;4736084;30;20052;-83
2022/04/25 06:51:30;;;;;;;4.97;4.47;;;;;;;25.56;38.48;99325.03;4714836;30;20059;-80
2022/04/25 06:53:56;;;;;;;5.70;4.07;;;;;;;26.81;35.59;99279.38;4735580;30;20214;-79
2022/04/25 06:56:22;;;;;;;6.82;4.22;;;;;;;28.31;33.27;99320.72;4733809;30;20528;-84
2022/04/25 06:58:48;;;;;;;9.77;4.93;;;;;;;28.97;31.88;99295.06;4746757;30;20044;-82
2022/04/25 07:01:15;;;;;;;5.20;3.90;;;;;;;29.61;29.77;99279.19;4746904;30;20051;-81
2022/04/25 07:03:41;;;;;;;5.00;3.97;;;;;;;29.67;30.56;99277.75;4748412;30;20055;-80
2022/04/25 07:06:10;;;;;;;5.13;3.63;;;;;;;30.90;29.91;99299.53;4748466;30;20111;-81
2022/04/25 07:08:42;;;;;;;4.65;3.78;;;;;;;32.13;28.15;99293.03;4703160;30;20040;-82
2022/04/25 07:11:11;;;;;;;4.28;3.67;;;;;;;32.75;26.57;99302.53;4732347;30;20059;-80
2022/04/25 07:13:42;;;;;;;5.63;4.20;;;;;;;33.15;24.57;99277.53;4747628;30;20044;-82
2022/04/25 07:16:09;;;;;;;4.55;3.85;;;;;;;33.48;24.31;99302.56;4733522;30;20074;-81
2022/04/25 07:18:40;;;;;;;4.25;3.42;;;;;;;33.12;23.98;99304.84;4733839;30;20048;-83
2022/04/25 07:29:25;;;;;;;5.18;3.83;;;;;;;35.61;20.47;99296.66;4760746;30;20047;-82
2022/04/25 07:31:51;;;;;;;3.78;3.47;;;;;;;36.11;20.15;99298.66;4753760;30;20405;-80
2022/04/25 07:34:47;;;;;;;4.10;3.70;;;;;;;36.76;19.47;99293.22;4753472;30;20064;-81
2022/04/25 07:37:17;;;;;;;5.53;3.47;;;;;;;37.15;19.28;99280.16;4742369;30;20048;-82
2022/04/25 07:39:50;;;;;;;7.65;3.75;;;;;;;36.75;18.51;99253.63;4752729;30;20078;-77
2022/04/25 07:42:18;;;;;;;4.55;3.90;;;;;;;36.92;18.28;99284.81;4735574;30;20036;-82
2022/04/25 07:44:46;;;;;;;4.57;3.65;;;;;;;37.08;17.90;99289.09;4737421;30;20147;-81
2022/04/25 07:47:13;;;;;;;5.22;3.30;;;;;;;37.56;18.37;99278.53;4750776;30;20773;-82
2022/04/25 07:49:40;;;;;;;5.13;4.03;;;;;;;37.89;18.02;99267.75;4759194;30;20070;-80
2022/04/25 07:52:07;;;;;;;4.25;3.40;;;;;;;38.51;17.12;99266.84;4753847;30;20417;-83
2022/04/25 07:54:51;;;;;;;5.57;3.45;;;;;;;39.27;15.65;99272.78;4753770;30;20110;-85
2022/04/25 07:57:17;;;;;;;3.83;3.50;;;;;;;37.87;16.19;99274.41;4741961;30;20044;-78
2022/04/25 07:59:43;;;;;;;8.20;4.00;;;;;;;37.32;16.16;99269.84;4759547;30;20496;-83
2022/04/25 08:02:09;;;;;;;11.73;4.63;;;;;;;37.15;16.37;99275.59;4716784;30;20039;-80
2022/04/25 08:04:37;;;;;;;5.15;3.60;;;;;;;37.28;16.35;99268.56;4735964;30;20056;-85
2022/04/25 08:07:05;;;;;;;9.75;4.47;;;;;;;37.36;16.48;99284.66;4747386;30;20063;-80
2022/04/25 08:09:31;;;;;;;4.25;3.60;;;;;;;36.60;16.10;99223.94;4742201;30;20457;-79
2022/04/25 08:20:17;;;;;;;6.28;4.07;;;;;;;36.23;16.54;99267.38;4748564;30;20059;-82
2022/04/25 08:22:45;;;;;;;5.10;3.90;;;;;;;35.99;17.00;99263.16;4744928;30;20048;-83
2022/04/25 08:25:12;;;;;;;4.47;3.92;;;;;;;36.99;15.90;99256.94;4715537;30;20052;-81
2022/04/25 08:27:38;;;;;;;4.85;3.50;;;;;;;37.13;15.61;99245.13;4715094;30;20429;-81
2022/04/25 08:30:05;;;;;;;5.07;3.85;;;;;;;36.32;16.46;99244.53;4746278;30;20052;-82
2022/04/25 08:32:33;;;;;;;6.65;4.10;;;;;;;34.56;16.87;99257.88;4729896;30;20088;-81
2022/04/25 08:35:01;;;;;;;5.93;4.70;;;;;;;33.69;17.60;99254.41;4730616;30;20739;-83
2022/04/25 08:37:29;;;;;;;9.07;4.10;;;;;;;33.18;17.82;99234.91;4746570;30;20048;-82
2022/04/25 08:39:55;;;;;;;5.82;4.43;;;;;;;33.08;17.92;99257.69;4729386;30;20572;-80
2022/04/25 08:42:22;;;;;;;4.30;3.90;;;;;;;33.29;18.09;99252.56;4744530;30;20119;-78
2022/04/25 08:44:55;;;;;;;4.50;4.10;;;;;;;34.20;18.03;99241.28;4745739;30;20051;-81
2022/04/25 08:47:26;;;;;;;4.63;4.18;;;;;;;34.03;17.87;99240.56;4745637;30;20493;-81
2022/04/25 08:49:52;;;;;;;;;;;;;;;34.21;17.73;99232.19;4745154;30;20102;-78
2022/04/25 08:52:18;;;;;;;6.05;4.28;;;;;;;34.35;17.69;99243.19;4730818;30;19926;-84
2022/04/25 08:54:46;;;;;;;4.40;4.00;;;;;;;34.00;17.88;99221.22;4731915;30;20044;-81
2022/04/25 08:57:13;;;;;;;5.85;4.07;;;;;;;35.13;16.99;99211.38;4746020;30;20062;-80
2022/04/25 08:59:40;;;;;;;5.32;4.00;;;;;;;36.18;16.60;99194.88;4749535;30;20048;-80
2022/04/25 09:02:08;;;;;;;5.75;3.88;;;;;;;36.95;15.98;99217.72;4734478;30;20028;-81
2022/04/25 09:04:34;;;;;;;4.30;3.33;;;;;;;38.10;14.86;99169.03;4734249;30;20048;-81
2022/04/25 09:07:00;;;;;;;7.07;4.18;;;;;;;38.85;14.38;99197.81;4752887;30;20050;-82
2022/04/25 09:09:26;;;;;;;4.95;3.70;;;;;;;39.50;14.47;99211.63;4731133;30;20048;-80
2022/04/25 09:12:13;;;;;;;10.60;4.18;;;;;;;39.33;14.01;99205.84;4745680;30;20128;-82
2022/04/25 09:14:44;;;;;;;6.43;4.03;;;;;;;37.22;13.98;99146.31;4716200;30;20048;-87
2022/04/25 09:17:10;;;;;;;6.28;4.00;;;;;;;35.40;15.77;99183.81;4743863;30;20047;-80
2022/04/25 09:19:38;;;;;;;11.32;4.70;;;;;;;34.02;16.39;99176.84;4726097;30;20064;-83
2022/04/25 09:22:06;;;;;;;6.25;3.92;;;;;;;33.94;17.17;99158.03;4726663;30;20112;-81
2022/04/25 09:24:34;;;;;;;4.35;3.65;;;;;;;34.92;16.77;99165.34;4741316;30;20056;-82
2022/04/25 09:27:22;;;;;;;4.65;4.18;;;;;;;35.53;15.69;99139.91;4728365;30;20048;-85
2022/04/25 09:29:50;;;;;;;7.38;4.40;;;;;;;36.51;15.03;99185.34;4727786;30;20509;-84
2022/04/25 09:32:17;;;;;;;5.57;4.30;;;;;;;36.28;15.52;99172.88;4726334;30;20040;-81
2022/04/25 09:37:44;;;;;;;5.72;4.10;;;;;;;34.40;16.10;99173.28;4728894;30;20041;-80
2022/04/25 09:40:11;;;;;;;5.47;3.75;;;;;;;32.96;17.21;99125.22;4715901;30;20048;-84
2022/04/25 09:42:37;;;;;;;4.70;4.20;;;;;;;33.06;17.46;99139.34;4724393;30;20143;-84
2022/04/25 09:45:05;;;;;;;8.32;4.47;;;;;;;33.89;16.43;99181.97;4728742;30;20139;-83
2022/04/25 09:47:34;;;;;;;5.10;4.57;;;;;;;33.19;16.68;99173.78;4698426;30;20774;-83
2022/04/25 09:50:15;;;;;;;4.95;4.13;;;;;;;32.37;17.20;99154.16;4741311;30;20052;-83
2022/04/25 09:53:00;;;;;;;5.57;3.88;;;;;;;31.02;17.86;99100.53;4711854;30;20056;-84
2022/04/25 09:55:31;;;;;;;6.80;4.30;;;;;;;30.77;18.11;99178.31;4727661;30;20104;-82
2022/04/25 09:57:57;;;;;;;7.57;4.50;;;;;;;31.47;18.61;99149.53;4726985;30;20057;-83
2022/04/25 10:00:28;;;;;;;5.35;4.55;;;;;;;31.67;18.58;99172.44;4727687;30;20049;-83
2022/04/25 10:02:54;;;;;;;5.15;3.90;;;;;;;32.31;18.30;99160.22;4727008;30;20044;-82
2022/04/25 10:05:20;;;;;;;5.95;4.43;;;;;;;32.83;17.58;99145.50;4727995;30;20079;-81
2022/04/25 10:07:47;;;;;;;6.50;4.20;;;;;;;31.96;17.62;99175.66;4713826;30;20041;-82
2022/04/25 10:10:14;;;;;;;7.78;4.60;;;;;;;30.73;18.23;99142.88;4734581;30;20048;-82
2022/04/25 10:12:40;;;;;;;7.25;5.50;;;;;;;31.23;18.58;99162.72;4736760;30;20040;-80
2022/04/25 10:15:07;;;;;;;5.97;4.05;;;;;;;31.32;17.87;99120.63;4721592;30;20067;-81
2022/04/25 10:17:40;;;;;;;5.28;4.10;;;;;;;31.25;18.26;99130.34;4732522;30;20124;-82
2022/04/25 10:20:08;;;;;;;7.53;4.50;;;;;;;30.71;18.01;99146.72;4733528;30;20118;-82
2022/04/25 10:22:38;;;;;;;11.88;5.35;;;;;;;29.93;18.60;99124.19;4731317;30;20052;-80
2022/04/25 10:25:05;;;;;;;4.70;3.83;;;;;;;29.60;19.36;99127.44;4714394;30;20157;-81
2022/04/25 10:27:35;;;;;;;5.90;3.90;;;;;;;29.76;19.39;99170.47;4718257;30;20581;-79
2022/04/25 10:30:10;;;;;;;7.53;4.00;;;;;;;29.41;19.48;99150.69;4729959;30;20088;-79
2022/04/25 10:32:36;;;;;;;6.28;4.35;;;;;;;28.66;19.76;99174.78;4730981;30;20107;-81
2022/04/25 10:35:04;;;;;;;6.72;4.22;;;;;;;26.86;20.41;99057.47;4732589;30;20071;-84
2022/04/25 10:37:30;;;;;;;4.65;4.00;;;;;;;26.87;21.74;99161.44;4733004;30;20094;-79
2022/04/25 10:40:01;;;;;;;4.78;4.38;;;;;;;26.76;21.75;99175.66;4750238;30;20071;-81
2022/04/25 10:45:11;;;;;;;5.03;4.55;;;;;;;25.99;22.64;99161.69;4749617;30;20044;-80
2022/04/25 10:47:53;;;;;;;5.45;3.72;;;;;;;25.31;23.71;99169.84;4728949;30;20490;-80
2022/04/25 10:50:20;;;;;;;5.72;4.55;;;;;;;24.60;24.20;99125.72;4745159;30;20105;-82
2022/04/25 10:52:53;;;;;;;5.40;4.13;;;;;;;24.50;24.82;99156.66;4730563;30;20516;-81
2022/04/25 10:55:33;;;;;;;5.90;4.25;;;;;;;24.52;24.74;99155.56;4730110;30;20506;-79
2022/04/25 10:58:02;;;;;;;4.40;3.60;;;;;;;24.58;24.50;99164.03;4729726;30;20106;-80
2022/04/25 11:00:37;;;;;;;12.38;11.02;;;;;;;24.57;24.96;99149.03;4728528;30;20087;-79
2022/04/25 11:03:08;;;;;;;7.68;4.22;;;;;;;24.25;25.28;99147.91;4743833;30;20055;-82
2022/04/25 11:05:40;;;;;;;5.93;3.90;;;;;;;23.83;25.76;99148.34;4711393;30;20060;-84
2022/04/25 11:08:20;;;;;;;7.07;4.22;;;;;;;23.25;26.44;99153.47;4729594;30;20068;-80
2022/04/25 11:11:03;;;;;;;4.82;4.32;;;;;;;22.91;27.09;99146.09;4745052;30;20063;-80
2022/04/25 11:13:32;;;;;;;7.40;4.50;;;;;;;22.51;27.46;99162.13;4729976;30;20395;-79
2022/04/25 11:16:22;;;;;;;7.05;4.15;;;;;;;22.12;27.74;99164.69;4729446;30;20049;-81
2022/04/25 11:19:11;;;;;;;5.55;3.95;;;;;;;21.79;27.97;99158.88;4733674;30;20056;-83
2022/04/25 11:21:46;;;;;;;5.90;3.83;;;;;;;21.31;28.17;99135.47;4759829;30;20052;-80
2022/04/25 11:24:38;;;;;;;4.05;3.38;;;;;;;21.46;28.16;99146.84;4752071;30;20056;-82
2022/04/25 11:27:14;;;;;;;4.82;3.90;;;;;;;21.28;28.55;99143.63;4747673;30;20050;-82
2022/04/25 11:29:47;;;;;;;6.45;4.10;;;;;;;21.49;28.67;99151.13;4733179;30;20582;-78
2022/04/25 11:32:35;;;;;;;3.92;3.50;;;;;;;21.54;28.47;99162.22;4745932;30;20180;-82
2022/04/25 11:35:04;;;;;;;6.53;4.65;;;;;;;21.43;28.40;99155.00;4747367;30;20069;-80
2022/04/25 11:37:32;;;;;;;3.85;3.35;;;;;;;21.29;28.37;99142.66;4730830;30;20044;-80
2022/04/25 11:40:04;;;;;;;3.78;3.45;;;;;;;21.21;28.46;99163.47;4730875;30;20059;-80
2022/04/25 11:42:33;;;;;;;4.30;3.45;;;;;;;21.14;28.73;99152.44;4738690;30;20093;-81
2022/04/25 11:45:01;;;;;;;4.68;3.10;;;;;;;21.03;28.53;99137.22;4731598;30;20048;-81
2022/04/25 11:47:31;;;;;;;7.53;3.40;;;;;;;20.74;28.91;99094.91;4731287;30;20413;-80
2022/04/25 11:50:06;;;;;;;3.55;3.10;;;;;;;20.40;28.93;99077.66;4708626;30;20052;-82
2022/04/25 11:52:33;;;;;;;5.00;3.40;;;;;;;19.94;29.04;99053.09;4740138;30;20143;-82
2022/04/25 11:54:59;;;;;;;4.68;3.35;;;;;;;20.15;29.47;99084.41;4724914;30;20044;-82
2022/04/25 11:57:27;;;;;;;4.13;3.00;;;;;;;20.26;29.64;99082.00;4748510;30;20101;-81
2022/04/25 12:00:14;;;;;;;4.45;3.28;;;;;;;20.18;30.23;99068.41;4730799;30;20059;-80
2022/04/25 12:02:41;;;;;;;3.10;2.80;;;;;;;20.15;29.53;99076.50;4745779;30;20052;-82
2022/04/25 12:05:08;;;;;;;10.95;3.45;;;;;;;20.44;30.14;99129.38;4747633;30;20455;-83
2022/04/25 12:15:33;;;;;;;3.50;3.20;;;;;;;20.38;29.94;99150.88;4738692;30;20052;-81
2022/04/25 12:15:58;;;;;;;4.93;3.05;;;;;;;20.30;29.58;99132.84;4755448;30;20071;-82